Hoppa till innehåll

METAR väder och rapporter - ESGG

Nedan listas information från vald flygplats. Andra METARs finns längre ned på sidan. Kontakta oss om någon saknas eller skriv in egen ICAO-kod.

Andra intressanta METARs

Klicka på önskad rubrik nedan för att visa nuvarande väder för den platsen.

Avstånd från stationen: NO 27kmESGG - Göteborg (Landvetter)
Uppdaterad: 2017-08-19 18:20
 Vind från SSV
Vind: SSV 28 km/h
Temperatur: 14°C
Daggpunkt: 11°C
Luftfuktighet: 82%
Barometer: 1008 hPa
Summering: Skurar i närheten
Moln: Delvis molnigt
Sikt: 10 km
Molninformation: Några få moln 610 m
Delvis molnigt 1219 m
2017/08/19 16:20 ESGG 191620Z 20015KT 9999 VCSH FEW020 SCT040CB 14/11 Q1008
Nearby showers, Delvis molnigt
Nearby showers
Delvis molnigt
  Visa detaljer för Göteborg (Landvetter)
Avstånd från stationen: N 28kmESGP - Göteborg (Säve)
Uppdaterad: 2017-01-02 11:20
Ej aktuell
 Vind från calm
Vind: Vindstilla
Temperatur: -2°C
Daggpunkt: -4°C
Luftfuktighet: 86%
Barometer: 1012 hPa
Moln: Klart
Sikt: 10 km
2017/01/02 10:20 ESGP 021020Z AUTO 00000KT 9999 NCD M02/M04 Q1012
Klart
Klart
  Visa detaljer för Göteborg (Säve)
Avstånd från stationen: NO 419kmESSA - Stockholm (Arlanda)
Uppdaterad: 2017-08-19 18:20
 Vind från VSV
Vind: VSV 33 km/h
Temperatur: 20°C
Daggpunkt: 9°C
Luftfuktighet: 49%
Barometer: 1005 hPa
Moln: Delvis molnigt
Sikt: 10 km
2017/08/19 16:20 ESSA 191620Z 24018KT 9999 NSC 20/09 Q1005 NOSIG
Delvis molnigt
Delvis molnigt
  Visa detaljer för Stockholm (Arlanda)
Avstånd från stationen: ONO 404kmESSB - Stockholm (Bromma)
Uppdaterad: 2017-08-19 18:20
 Vind från SV
Vind: SV 22 km/h
Temperatur: 20°C
Daggpunkt: 8°C
Luftfuktighet: 46%
Barometer: 1006 hPa
Moln: Klart
Sikt: 10 km
2017/08/19 16:20 ESSB 191620Z AUTO 23012KT 9999 NCD 20/08 Q1006
Klart
Klart
  Visa detaljer för Stockholm (Bromma)
Avstånd från stationen: ONO 323kmESKN - Stockholm (Skavsta)
Uppdaterad: 2017-08-19 18:20
 Vind från VSV
Vind: VSV 19 km/h
Temperatur: 20°C
Daggpunkt: 10°C
Luftfuktighet: 53%
Barometer: 1007 hPa
Summering: Klart
Sikt: mer än 10 km
2017/08/19 16:20 ESKN 191620Z 24010KT CAVOK 20/10 Q1007
Klart
Klart
  Visa detaljer för Stockholm (Skavsta)
Avstånd från stationen: SSO 238kmESMS - Malmö flygplats (Sturup)
Uppdaterad: 2017-08-19 18:20
 Vind från SSV
Vind: SSV 22 km/h
Temperatur: 16°C
Daggpunkt: 12°C
Luftfuktighet: 77%
Barometer: 1013 hPa
Summering: Klart
Sikt: mer än 10 km
2017/08/19 16:20 ESMS 191620Z 21012KT CAVOK 16/12 Q1013
Klart
Klart
  Visa detaljer för Malmö flygplats (Sturup)
Avstånd från stationen: O 382kmESSV - Visby flygplats
Uppdaterad: 2017-08-19 18:20
 Vind från SV
Vind: SV 30 km/h
Temperatur: 19°C
Daggpunkt: 13°C
Luftfuktighet: 68%
Barometer: 1010 hPa
Moln: Några få moln
Sikt: 10 km
Molninformation: Några få moln 1372 m
2017/08/19 16:20 ESSV 191620Z 22016KT 9999 FEW045 19/13 Q1010
Några få moln
Några få moln
  Visa detaljer för Visby flygplats
Avstånd från stationen: NNO 92kmESGT - Trollhättan
Uppdaterad: 2017-08-19 17:20
Ej aktuell
 Vind från SSV
Vind: SSV 17 km/h
Temperatur: 15°C
Daggpunkt: 12°C
Luftfuktighet: 82%
Barometer: 1007 hPa
Moln: Delvis molnigt
Sikt: 10 km
Molninformation: Delvis molnigt 914 m
Delvis molnigt 1067 m
2017/08/19 15:20 ESGT 191520Z 21009KT 9999 SCT030CB SCT035 15/12 Q1007
Delvis molnigt
Delvis molnigt
  Visa detaljer för Trollhättan
Avstånd från stationen: ONO 129kmESGJ - Jönköpings flygplats
Uppdaterad: 2017-08-19 18:20
 Vind från SV
Vind: SV 24 km/h
Temperatur: 17°C
Daggpunkt: 8°C
Luftfuktighet: 56%
Barometer: 1009 hPa
Moln: Delvis molnigt
Sikt: 10 km
Molninformation: Delvis molnigt 1250 m
2017/08/19 16:20 ESGJ 191620Z 23013KT 9999 SCT041 17/08 Q1009
Delvis molnigt
Delvis molnigt
  Visa detaljer för Jönköpings flygplats
Avstånd från stationen: NNO 229kmESOK - Karlstad
Uppdaterad: 2017-08-19 18:20
 Vind från SSV
Vind: SSV 26 km/h
Temperatur: 17°C
Daggpunkt: 10°C
Luftfuktighet: 64%
Barometer: 1005 hPa
Moln: Några få moln
Sikt: 10 km
Molninformation: Några få moln 1128 m
2017/08/19 16:20 ESOK 191620Z 21014KT 9999 FEW037 17/10 Q1005
Några få moln
Några få moln
  Visa detaljer för Karlstad
Avstånd från stationen: N 643kmESNZ - Östersund (Frösön)
Uppdaterad: 2017-08-19 18:20
 Vind från V
Vind: V 19 km/h
Temperatur: 11°C
Daggpunkt: 10°C
Luftfuktighet: 94%
Barometer: 997 hPa
Summering: Regn
Moln: Genommulet
Sikt: 8 km
Molninformation: Några få moln 61 m
Delvis molnigt 366 m
Genommulet 1189 m
2017/08/19 16:20 ESNZ 191620Z AUTO 27010KT 8000 RA FEW002/// SCT012/// OVC039/// 11/10 Q0997
Regn, Genommulet
Regn
Genommulet
  Visa detaljer för Östersund (Frösön)
Avstånd från stationen: SSO 216kmEKCH - Köpenhamn (Kastrup)
Uppdaterad: 2017-08-19 18:20
 Vind från SSV
Vind: SSV 26 km/h
Temperatur: 17°C
Daggpunkt: 13°C
Luftfuktighet: 77%
Barometer: 1012 hPa
Moln: Delvis molnigt
Sikt: 10 km
Molninformation: Delvis molnigt 1250 m
2017/08/19 16:20 EKCH 191620Z 20014KT 9999 SCT041 17/13 Q1012 NOSIG
Delvis molnigt
Delvis molnigt
  Visa detaljer för Köpenhamn (Kastrup)
Avstånd från stationen: SV 263kmEKBI - Billund Airport
Uppdaterad: 2017-08-19 18:20
 Vind från SV
Vind: SV 19 km/h
Temperatur: 15°C
Daggpunkt: 13°C
Luftfuktighet: 88%
Barometer: 1010 hPa
Moln: Delvis molnigt
Sikt: 10 km
Molninformation: Några få moln 457 m
Delvis molnigt 914 m
2017/08/19 16:20 EKBI 191620Z 23010KT 9999 FEW015CB SCT030 15/13 Q1010
Delvis molnigt
Delvis molnigt
  Visa detaljer för Billund Airport
Avstånd från stationen: N 302kmENGM - Oslo (Gardermoen)
Uppdaterad: 2017-08-19 18:20
 Vind från SSV
Vind: SSV 33 km/h
Temperatur: 16°C
Daggpunkt: 7°C
Luftfuktighet: 55%
Barometer: 1002 hPa
Moln: Övervägande molnigt
Sikt: 10 km
Molninformation: Några få moln 1158 m
Delvis molnigt 2225 m
Övervägande molnigt 5182 m
2017/08/19 16:20 ENGM 191620Z 21018KT 180V240 9999 FEW038 SCT073 BKN170 16/07 Q1002 TEMPO 20020G30KT
Övervägande molnigt
Övervägande molnigt
  Visa detaljer för Oslo (Gardermoen)
Avstånd från stationen: NO 540kmEFMA - Mariehamn / Åland
Uppdaterad: 2017-08-19 18:20
 Vind från SSV
Vind: SSV 26 km/h
Temperatur: 18°C
Daggpunkt: 16°C
Luftfuktighet: 88%
Barometer: 1005 hPa
Moln: Övervägande molnigt
Sikt: 10 km
Molninformation: Delvis molnigt 1280 m
Övervägande molnigt 6370 m
2017/08/19 16:20 EFMA 191620Z AUTO 20014KT 170V230 9999 SCT042 BKN209 18/16 Q1005
Övervägande molnigt
Övervägande molnigt
  Visa detaljer för Mariehamn / Åland
Avstånd från stationen: S 558kmEDDT - Berlin (Tegel), Germany
Uppdaterad: 2017-08-19 18:20
 Vind från VSV
Vind: VSV 24 km/h
Temperatur: 20°C
Daggpunkt: 8°C
Luftfuktighet: 46%
Barometer: 1016 hPa
Summering: Klart
Sikt: mer än 10 km
2017/08/19 16:20 EDDT 191620Z 24013KT CAVOK 20/08 Q1016 NOSIG
Klart
Klart
  Visa detaljer för Berlin (Tegel), Germany
Avstånd från stationen: SV 737kmEHAM - Amsterdam (Schiphol)
Uppdaterad: 2017-08-19 18:25
 Vind från VSV
Vind: VSV 35 km/h
Temperatur: 18°C
Daggpunkt: 11°C
Luftfuktighet: 64%
Barometer: 1016 hPa
Moln: Delvis molnigt
Sikt: 10 km
Molninformation: Delvis molnigt 1067 m
2017/08/19 16:25 EHAM 191625Z 24019KT 210V270 9999 SCT035 18/11 Q1016 NOSIG
Delvis molnigt
Delvis molnigt
  Visa detaljer för Amsterdam (Schiphol)
Avstånd från stationen: ONO 808kmEFHK - Helsingfors (Vantaa)
Uppdaterad: 2017-08-19 18:20
 Vind från SSV
Vind: SSV 30 km/h
Temperatur: 18°C
Daggpunkt: 15°C
Luftfuktighet: 83%
Barometer: 1009 hPa
Moln: Övervägande molnigt
Sikt: 10 km
Molninformation: Delvis molnigt 518 m
Övervägande molnigt 3658 m
Övervägande molnigt 6096 m
2017/08/19 16:20 EFHK 191620Z 20016KT 9999 SCT017 BKN120 BKN200 18/15 Q1009 NOSIG
Övervägande molnigt
Övervägande molnigt
  Visa detaljer för Helsingfors (Vantaa)
Avstånd från stationen: SSV 537kmEDDW - Bremen
Uppdaterad: 2017-08-19 18:33
 Vind från V
Vind: V 37 km/h
Temperatur: 15°C
Daggpunkt: 11°C
Luftfuktighet: 77%
Barometer: 1016 hPa
Summering: Regnskurar
Moln: Delvis molnigt
Sikt: 10 km
Molninformation: Delvis molnigt 1006 m
2017/08/19 16:33 EDDW 191633Z 28020KT 9999 SHRA SCT033TCU 15/11 Q1016 TEMPO 24015G25KT
Rain showers, Delvis molnigt
Rain showers
Delvis molnigt
  Visa detaljer för Bremen
Avstånd från stationen: SSV 861kmEDDF - Frankfurt am Main
Uppdaterad: 2017-08-19 18:20
 Vind från SSV
Vind: SSV 15 km/h
Temperatur: 21°C
Daggpunkt: 10°C
Luftfuktighet: 50%
Barometer: 1019 hPa
Summering: Klart
Sikt: mer än 10 km
2017/08/19 16:20 EDDF 191620Z 21008KT CAVOK 21/10 Q1019 NOSIG
Klart
Klart
  Visa detaljer för Frankfurt am Main
Avstånd från stationen: SV 880kmEBBR - Bryssel international
Uppdaterad: 2017-08-19 18:20
 Vind från V
Vind: V 15 km/h
Temperatur: 19°C
Daggpunkt: 11°C
Luftfuktighet: 60%
Barometer: 1019 hPa
Moln: Några få moln
Sikt: 10 km
Molninformation: Några få moln 1250 m
2017/08/19 16:20 EBBR 191620Z 28008KT 9999 FEW041 19/11 Q1019 NOSIG
Några få moln
Några få moln
  Visa detaljer för Bryssel international
Avstånd från stationen: SV 738kmEHAM - Amsterdam (Schiphol)
Uppdaterad: 2017-08-19 18:25
 Vind från VSV
Vind: VSV 35 km/h
Temperatur: 18°C
Daggpunkt: 11°C
Luftfuktighet: 64%
Barometer: 1016 hPa
Moln: Delvis molnigt
Sikt: 10 km
Molninformation: Delvis molnigt 1067 m
2017/08/19 16:25 EHAM 191625Z 24019KT 210V270 9999 SCT035 18/11 Q1016 NOSIG
Delvis molnigt
Delvis molnigt
  Visa detaljer för Amsterdam (Schiphol)
Avstånd från stationen: SV 1044kmEGLL - London (Heathrow)
Uppdaterad: 2017-08-19 18:20
 Vind från V
Vind: V 31 km/h
Temperatur: 19°C
Daggpunkt: 8°C
Luftfuktighet: 49%
Barometer: 1019 hPa
Moln: Klart
Sikt: 10 km
2017/08/19 16:20 EGLL 191620Z AUTO 28017KT 9999 NCD 19/08 Q1019 NOSIG
Klart
Klart
  Visa detaljer för London (Heathrow)
Avstånd från stationen: SV 1132kmLFPG - Paris (Charles de Gaulle)
Uppdaterad: 2017-08-19 18:30
 Vind från VNV
Vind: VNV 19 km/h
Temperatur: 21°C
Daggpunkt: 8°C
Luftfuktighet: 43%
Barometer: 1021 hPa
Summering: Klart
Sikt: mer än 10 km
2017/08/19 16:30 LFPG 191630Z 30010KT CAVOK 21/08 Q1021 NOSIG
Klart
Klart
  Visa detaljer för Paris (Charles de Gaulle)
Avstånd från stationen: SSV 1142kmLSZH - Zürich Airport
Uppdaterad: 2017-08-19 18:20
 Vind från V
Vind: V 17 km/h
Temperatur: 21°C
Daggpunkt: 9°C
Luftfuktighet: 46%
Barometer: 1020 hPa
Moln: Några få moln
Sikt: 10 km
Molninformation: Några få moln 1890 m
2017/08/19 16:20 LSZH 191620Z 28009KT 250V320 9999 FEW062 21/09 Q1020 NOSIG
Några få moln
Några få moln
  Visa detaljer för Zürich Airport
Avstånd från stationen: S 1749kmLIRF - Rome Airport (Fiumicino - Leonardo da Vinci)
Uppdaterad: 2017-08-19 18:20
 Vind från S
Vind: S 15 km/h
Temperatur: 28°C
Värmeindex: 31°C
Daggpunkt: 23°C
Luftfuktighet: 74%
Barometer: 1014 hPa
Moln: Några få moln
Sikt: 10 km
Molninformation: Några få moln 244 m
2017/08/19 16:20 LIRF 191620Z 19008KT 9999 FEW008 28/23 Q1014 NOSIG
Några få moln
Några få moln
  Visa detaljer för Rome Airport (Fiumicino - Leonardo da Vinci)
Avstånd från stationen: SO 2679kmLTAI - Antalya
Uppdaterad: 2017-08-19 18:20
 Vind från SSO
Vind: SSO 9 km/h
Temperatur: 29°C
Värmeindex: 32°C
Daggpunkt: 22°C
Luftfuktighet: 66%
Barometer: 1010 hPa
Moln: Delvis molnigt
Sikt: 10 km
Molninformation: Delvis molnigt 914 m
2017/08/19 16:20 LTAI 191620Z 16005KT 110V190 9999 SCT030 29/22 Q1010 NOSIG
Delvis molnigt
Delvis molnigt
  Visa detaljer för Antalya
Avstånd från stationen: VSV 6074kmKJFK - New Your (JFK)
Uppdaterad: 2017-08-19 17:51
 Vind från SSV
Vind: SSV 17 km/h
Temperatur: 29°C
Värmeindex: 32°C
Daggpunkt: 22°C
Luftfuktighet: 66%
Barometer: 1011.5 hPa
Moln: Övervägande molnigt
Sikt: 16 km
Molninformation: Delvis molnigt 1524 m
Delvis molnigt 3048 m
Övervägande molnigt 7620 m
2017/08/19 15:51 KJFK 191551Z 21009KT 10SM SCT050 SCT100 BKN250 29/22 A2987 RMK AO2 SLP114 T02890222
Övervägande molnigt
Övervägande molnigt
  Visa detaljer för New Your (JFK)
Avstånd från stationen: VSV 8848kmKLAX - Los Angeles International Airport
Uppdaterad: 2017-08-19 17:53
 Vind från SSV
Vind: SSV 11 km/h
Temperatur: 21°C
Daggpunkt: 17°C
Luftfuktighet: 78%
Barometer: 1015.2 hPa
Moln: Övervägande molnigt
Sikt: 16 km
Molninformation: Övervägande molnigt 579 m
2017/08/19 15:53 KLAX 191553Z 21006KT 10SM BKN019 21/17 A2998 RMK AO2 SLP150 T02110167
Övervägande molnigt
Övervägande molnigt
  Visa detaljer för Los Angeles International Airport
Avstånd från stationen: SO 4968kmOMDB - Dubai International Airport
Uppdaterad: 2017-08-19 18:00
 Vind från NNV
Vind: NNV 6 km/h
Temperatur: 35°C
Värmeindex: 53°C
Daggpunkt: 30°C
Luftfuktighet: 75%
Barometer: 999 hPa
Moln: Delvis molnigt
Sikt: 7 km
2017/08/19 16:00 OMDB 191600Z 34003KT 290V020 7000 NSC 35/30 Q0999 NOSIG
Delvis molnigt
Delvis molnigt
  Visa detaljer för Dubai International Airport
Avstånd från stationen: OSO 8570kmRJTT - Tokyo International Airport
Uppdaterad: 2017-08-19 18:30
 Vind från N
Vind: N 17 km/h
Temperatur: 24°C
Daggpunkt: 23°C
Luftfuktighet: 94%
Barometer: 1012 hPa
Moln: Övervägande molnigt
Sikt: 10 km
Molninformation: Några få moln 244 m
Delvis molnigt 305 m
Övervägande molnigt 366 m
2017/08/19 16:30 RJTT 191630Z 36009KT 9999 FEW008 SCT010 BKN012 24/23 Q1012 NOSIG RMK 1ST008 4ST010 6CU012 A2988
Övervägande molnigt
Övervägande molnigt
  Visa detaljer för Tokyo International Airport
Avstånd från stationen: OSO 7125kmZBAA - Peking (Beijing Capital)
Uppdaterad: 2017-08-19 18:30
 Vind från varierande
Vind: varierande 4 km/h
Temperatur: 23°C
Daggpunkt: 22°C
Luftfuktighet: 94%
Barometer: 1010 hPa
Summering: Dimmigt
Moln: Delvis molnigt
Sikt: 5 km
2017/08/19 16:30 ZBAA 191630Z VRB01MPS 5000 BR NSC 23/22 Q1010 NOSIG
Dimmigt, Delvis molnigt
Dimmigt
Delvis molnigt
  Visa detaljer för Peking (Beijing Capital)
VÄDER KURIOSA -  RecyclingAmericans use 2,500,000 plastic bottles every hour! Most of them are thrown away!